createdAt,value
2018-07-03T00:01:21.882Z,36.73
2018-07-03T00:03:47.841Z,36.55
2018-07-03T00:06:13.795Z,36.98
2018-07-03T00:08:39.828Z,36.78
2018-07-03T00:11:05.776Z,37.03
2018-07-03T00:13:31.742Z,37.46
2018-07-03T00:15:57.728Z,37.99
2018-07-03T00:18:23.685Z,36.68
2018-07-03T00:20:49.671Z,37.70
2018-07-03T00:23:15.626Z,37.02
2018-07-03T00:25:41.595Z,37.26
2018-07-03T00:28:07.582Z,37.22
2018-07-03T00:30:33.602Z,37.14
2018-07-03T00:32:59.562Z,38.01
2018-07-03T00:35:26.214Z,38.15
2018-07-03T00:37:52.146Z,38.08
2018-07-03T00:40:18.102Z,38.69
2018-07-03T00:42:44.139Z,37.83
2018-07-03T00:45:10.071Z,37.57
2018-07-03T00:47:36.069Z,37.45
2018-07-03T00:50:02.037Z,36.86
2018-07-03T00:52:27.970Z,37.71
2018-07-03T00:54:53.983Z,37.39
2018-07-03T00:57:19.948Z,38.25
2018-07-03T00:59:45.916Z,38.54
2018-07-03T01:02:11.860Z,38.32
2018-07-03T01:04:37.806Z,38.90
2018-07-03T01:07:03.760Z,39.80
2018-07-03T01:09:29.716Z,39.88
2018-07-03T01:11:55.671Z,40.13
2018-07-03T01:14:21.630Z,39.75
2018-07-03T01:16:47.564Z,39.91
2018-07-03T01:19:13.540Z,39.15
2018-07-03T01:21:39.492Z,39.83
2018-07-03T01:24:05.473Z,39.34
2018-07-03T01:26:31.412Z,40.11
2018-07-03T01:28:57.354Z,40.52
2018-07-03T01:31:23.323Z,40.36
2018-07-03T01:33:49.296Z,41.01
2018-07-03T01:36:15.304Z,39.67
2018-07-03T01:38:41.308Z,40.45
2018-07-03T01:41:07.273Z,40.74
2018-07-03T01:43:33.216Z,40.44
2018-07-03T01:45:59.262Z,40.80
2018-07-03T01:48:25.245Z,39.91
2018-07-03T01:50:51.268Z,40.95
2018-07-03T01:53:17.205Z,40.38
2018-07-03T01:55:43.168Z,40.34
2018-07-03T01:58:09.149Z,39.77
2018-07-03T02:00:35.102Z,39.46
2018-07-03T02:03:01.056Z,41.01
2018-07-03T02:05:27.083Z,41.09
2018-07-03T02:07:53.029Z,40.62
2018-07-03T02:10:18.985Z,41.20
2018-07-03T02:12:44.929Z,42.03
2018-07-03T02:15:10.936Z,42.04
2018-07-03T02:20:09.295Z,41.15
2018-07-03T02:22:35.286Z,41.79
2018-07-03T02:25:01.284Z,42.58
2018-07-03T02:27:27.307Z,41.76
2018-07-03T02:29:53.256Z,41.62
2018-07-03T02:32:19.189Z,42.83
2018-07-03T02:34:45.147Z,41.55
2018-07-03T02:37:11.141Z,42.94
2018-07-03T02:39:37.124Z,42.63
2018-07-03T02:42:03.081Z,41.83
2018-07-03T02:44:29.060Z,43.05
2018-07-03T02:46:55.013Z,43.38
2018-07-03T02:49:20.998Z,43.73
2018-07-03T02:51:46.960Z,44.09
2018-07-03T02:54:12.917Z,44.57
2018-07-03T02:56:38.958Z,43.89
2018-07-03T02:59:04.923Z,44.46
2018-07-03T03:01:30.921Z,44.42
2018-07-03T03:03:56.880Z,44.33
2018-07-03T03:06:22.849Z,45.38
2018-07-03T03:08:48.826Z,44.75
2018-07-03T03:11:14.880Z,45.01
2018-07-03T03:13:40.866Z,45.84
2018-07-03T03:16:06.836Z,44.69
2018-07-03T03:18:32.817Z,44.98
2018-07-03T03:20:58.802Z,46.18
2018-07-03T03:23:24.731Z,45.94
2018-07-03T03:25:50.722Z,45.94
2018-07-03T03:28:16.682Z,45.29
2018-07-03T03:30:42.668Z,45.49
2018-07-03T03:33:08.619Z,46.17
2018-07-03T03:35:34.572Z,44.69
2018-07-03T03:38:00.537Z,43.57
2018-07-03T03:40:26.504Z,44.02
2018-07-03T03:42:52.440Z,43.48
2018-07-03T03:45:18.400Z,43.65
2018-07-03T03:47:44.355Z,43.37
2018-07-03T03:50:10.352Z,43.68
2018-07-03T03:52:36.344Z,43.24
2018-07-03T03:55:02.338Z,43.99
2018-07-03T03:57:28.308Z,44.19
2018-07-03T03:59:54.259Z,43.98
2018-07-03T04:02:20.269Z,44.86
2018-07-03T04:04:46.224Z,44.54
2018-07-03T04:07:12.160Z,44.66
2018-07-03T04:09:39.136Z,44.68
2018-07-03T04:12:05.080Z,44.26
2018-07-03T04:14:31.037Z,45.01
2018-07-03T04:16:57.019Z,44.30
2018-07-03T04:19:22.954Z,44.62
2018-07-03T04:21:48.909Z,44.58
2018-07-03T04:24:14.849Z,45.21
2018-07-03T04:26:41.314Z,44.70
2018-07-03T04:29:07.281Z,44.89
2018-07-03T04:31:33.265Z,44.22
2018-07-03T04:33:59.292Z,44.39
2018-07-03T04:36:25.313Z,44.92
2018-07-03T04:38:51.279Z,44.37
2018-07-03T04:41:17.311Z,43.22
2018-07-03T04:43:43.292Z,43.02
2018-07-03T04:46:09.299Z,41.96
2018-07-03T04:48:35.246Z,41.48
2018-07-03T04:51:01.192Z,39.89
2018-07-03T04:53:27.201Z,40.12
2018-07-03T04:55:53.167Z,40.41
2018-07-03T04:58:19.113Z,40.39
2018-07-03T05:00:45.113Z,38.92
2018-07-03T05:03:11.059Z,38.33
2018-07-03T05:05:37.008Z,37.69
2018-07-03T05:08:02.985Z,37.36
2018-07-03T05:10:28.937Z,37.40
2018-07-03T05:12:54.920Z,37.35
2018-07-03T05:15:20.861Z,36.73
2018-07-03T05:17:46.931Z,36.76
2018-07-03T05:20:12.908Z,36.54
2018-07-03T05:22:38.901Z,36.17
2018-07-03T05:25:04.854Z,36.63
2018-07-03T05:27:30.829Z,35.74
2018-07-03T05:29:56.825Z,35.86
2018-07-03T05:32:22.840Z,35.12
2018-07-03T05:34:48.835Z,34.55
2018-07-03T05:37:14.847Z,34.92
2018-07-03T05:39:42.868Z,34.83
2018-07-03T05:42:08.806Z,35.32
2018-07-03T05:44:34.786Z,34.55
2018-07-03T05:47:00.889Z,34.01
2018-07-03T05:49:26.868Z,34.60
2018-07-03T05:51:52.802Z,33.78
2018-07-03T05:54:18.846Z,34.48
2018-07-03T05:56:44.798Z,33.87
2018-07-03T05:59:10.755Z,34.11
2018-07-03T06:01:36.785Z,33.77
2018-07-03T06:04:02.761Z,33.52
2018-07-03T06:06:28.787Z,34.27
2018-07-03T06:08:54.756Z,34.84
2018-07-03T06:11:20.758Z,33.94
2018-07-03T06:13:46.809Z,32.93
2018-07-03T06:16:12.801Z,33.55
2018-07-03T06:18:39.559Z,33.55
2018-07-03T06:21:05.606Z,32.67
2018-07-03T06:23:31.650Z,32.78
2018-07-03T06:25:57.732Z,31.31
2018-07-03T06:28:23.727Z,31.17
2018-07-03T06:30:49.728Z,32.04
2018-07-03T06:33:15.795Z,31.97
2018-07-03T06:35:41.787Z,32.05
2018-07-03T06:38:07.796Z,30.48
2018-07-03T06:40:33.842Z,30.88
2018-07-03T06:42:59.866Z,29.87
2018-07-03T06:45:25.862Z,30.03
2018-07-03T06:47:51.946Z,29.50
2018-07-03T06:50:17.975Z,30.43
2018-07-03T06:52:44.010Z,29.42
2018-07-03T06:55:13.831Z,29.22
2018-07-03T06:57:39.834Z,28.50
2018-07-03T07:00:05.796Z,28.74
2018-07-03T07:02:31.792Z,27.78
2018-07-03T07:04:57.764Z,27.84
2018-07-03T07:07:23.713Z,27.88
2018-07-03T07:09:49.706Z,27.64
2018-07-03T07:12:15.702Z,28.01
2018-07-03T07:14:41.686Z,27.93
2018-07-03T07:17:07.720Z,26.71
2018-07-03T07:19:33.831Z,26.89
2018-07-03T07:21:59.925Z,26.76
2018-07-03T07:24:25.900Z,25.61
2018-07-03T07:26:51.915Z,26.36
2018-07-03T07:29:17.959Z,26.20
2018-07-03T07:31:43.895Z,26.84
2018-07-03T07:34:09.933Z,26.88
2018-07-03T07:36:35.953Z,26.32
2018-07-03T07:39:02.795Z,26.36
2018-07-03T07:41:28.771Z,27.10
2018-07-03T07:43:54.766Z,26.08
2018-07-03T07:46:20.866Z,26.72
2018-07-03T07:48:46.903Z,26.65
2018-07-03T07:51:12.975Z,25.92
2018-07-03T07:53:38.981Z,26.89
2018-07-03T07:56:05.035Z,27.71
2018-07-03T07:58:31.613Z,27.89
2018-07-03T08:00:57.613Z,27.55
2018-07-03T08:03:23.630Z,27.19
2018-07-03T08:05:49.686Z,28.07
2018-07-03T08:08:15.753Z,27.78
2018-07-03T08:10:41.773Z,26.39
2018-07-03T08:13:07.756Z,27.46
2018-07-03T08:15:33.802Z,28.02
2018-07-03T08:18:00.311Z,26.92
2018-07-03T08:20:26.285Z,26.65
2018-07-03T08:22:52.260Z,26.82
2018-07-03T08:25:18.263Z,26.91
2018-07-03T08:27:44.252Z,27.69
2018-07-03T08:30:10.229Z,25.37
2018-07-03T08:32:36.243Z,26.95
2018-07-03T08:35:02.273Z,27.50
2018-07-03T08:37:28.321Z,26.85
2018-07-03T08:39:54.280Z,27.30
2018-07-03T08:42:20.355Z,28.28
2018-07-03T08:44:47.103Z,27.11
2018-07-03T08:47:13.111Z,27.70
2018-07-03T08:49:39.181Z,28.26
2018-07-03T08:52:05.218Z,29.34
2018-07-03T08:54:31.244Z,26.57
2018-07-03T08:56:57.212Z,28.50
2018-07-03T08:59:23.216Z,29.00
2018-07-03T09:01:49.226Z,28.10
2018-07-03T09:04:15.201Z,27.60
2018-07-03T09:06:41.334Z,27.69
2018-07-03T09:09:07.432Z,28.25
2018-07-03T09:11:33.533Z,27.70
2018-07-03T09:13:59.450Z,27.05
2018-07-03T09:16:26.129Z,27.76
2018-07-03T09:18:52.171Z,27.89
2018-07-03T09:21:18.233Z,28.76
2018-07-03T09:23:44.295Z,28.49
2018-07-03T09:26:10.314Z,27.24
2018-07-03T09:28:36.369Z,27.65
2018-07-03T09:31:02.387Z,28.23
2018-07-03T09:33:28.401Z,28.91
2018-07-03T09:35:54.417Z,26.84
2018-07-03T09:38:20.439Z,27.72
2018-07-03T09:40:46.492Z,28.33
2018-07-03T09:43:12.514Z,29.03
2018-07-03T09:45:38.498Z,29.01
2018-07-03T09:48:04.465Z,27.66
2018-07-03T09:50:30.583Z,27.85
2018-07-03T09:52:56.532Z,28.12
2018-07-03T09:55:22.548Z,28.26
2018-07-03T09:57:48.605Z,28.64
2018-07-03T10:00:15.463Z,28.58
2018-07-03T10:02:41.456Z,26.15
2018-07-03T10:05:07.511Z,26.62
2018-07-03T10:07:33.578Z,27.07
2018-07-03T10:09:59.547Z,27.80
2018-07-03T10:12:25.530Z,27.71
2018-07-03T10:14:51.588Z,26.61
2018-07-03T10:19:43.496Z,26.83
2018-07-03T10:22:10.164Z,27.64
2018-07-03T10:24:36.252Z,28.05
2018-07-03T10:27:02.268Z,27.70
2018-07-03T10:29:28.269Z,28.10
2018-07-03T10:31:54.238Z,27.66
2018-07-03T10:34:20.211Z,26.89
2018-07-03T10:36:46.201Z,28.22
2018-07-03T10:39:12.212Z,27.80
2018-07-03T10:41:38.194Z,27.15
2018-07-03T10:44:04.163Z,26.30
2018-07-03T10:46:30.239Z,27.09
2018-07-03T10:48:56.238Z,27.18
2018-07-03T10:51:22.240Z,27.57
2018-07-03T10:53:48.284Z,27.44
2018-07-03T10:56:14.301Z,27.73
2018-07-03T10:58:41.184Z,27.71
2018-07-03T11:01:07.232Z,27.30
2018-07-03T11:03:33.252Z,28.63
2018-07-03T11:05:59.255Z,28.45
2018-07-03T11:08:25.252Z,28.72
2018-07-03T11:10:51.242Z,28.92
2018-07-03T11:13:17.200Z,30.50
2018-07-03T11:15:43.310Z,29.87
2018-07-03T11:18:10.240Z,29.78
2018-07-03T11:20:36.258Z,27.18
2018-07-03T11:23:02.225Z,26.22
2018-07-03T11:25:28.210Z,25.50
2018-07-03T11:27:54.157Z,26.98
2018-07-03T11:30:20.105Z,27.93
2018-07-03T11:32:46.066Z,26.17
2018-07-03T11:35:12.034Z,26.25
2018-07-03T11:40:09.384Z,29.34
2018-07-03T11:42:35.359Z,28.32
2018-07-03T11:45:01.318Z,29.30
2018-07-03T11:47:27.265Z,29.89
2018-07-03T11:49:53.225Z,30.31
2018-07-03T11:52:19.217Z,28.96
2018-07-03T11:54:45.211Z,29.56
2018-07-03T11:57:11.165Z,30.05
2018-07-03T11:59:37.141Z,30.44
2018-07-03T12:02:03.213Z,30.36
2018-07-03T12:04:31.676Z,29.36
2018-07-03T12:06:57.626Z,26.11
2018-07-03T12:09:23.624Z,28.71
2018-07-03T12:11:49.645Z,29.88
2018-07-03T12:14:15.670Z,28.52
2018-07-03T12:16:41.635Z,29.59
2018-07-03T12:19:07.617Z,29.77
2018-07-03T12:21:33.806Z,29.74
2018-07-03T12:23:59.781Z,29.23
2018-07-03T12:26:25.722Z,30.17
2018-07-03T12:28:51.732Z,27.24
2018-07-03T12:31:17.701Z,29.34
2018-07-03T12:33:43.665Z,28.35
2018-07-03T12:36:09.608Z,29.40
2018-07-03T12:38:35.616Z,28.10
2018-07-03T12:41:01.596Z,29.94
2018-07-03T12:43:27.577Z,29.52
2018-07-03T12:45:54.558Z,29.78
2018-07-03T12:48:20.514Z,29.15
2018-07-03T12:50:46.453Z,28.89
2018-07-03T12:53:12.487Z,30.81
2018-07-03T12:55:38.503Z,29.69
2018-07-03T12:58:05.525Z,29.83
2018-07-03T13:00:31.505Z,28.43
2018-07-03T13:02:57.534Z,27.65
2018-07-03T13:05:23.518Z,29.00
2018-07-03T13:07:49.544Z,28.67
2018-07-03T13:10:15.517Z,27.67
2018-07-03T13:12:41.484Z,30.73
2018-07-03T13:15:07.444Z,29.43
2018-07-03T13:17:33.402Z,29.96
2018-07-03T13:19:59.358Z,29.37
2018-07-03T13:22:25.410Z,29.86
2018-07-03T13:24:51.474Z,29.47
2018-07-03T13:27:17.465Z,28.24
2018-07-03T13:29:43.515Z,29.87
2018-07-03T13:32:09.556Z,28.41
2018-07-03T13:34:35.532Z,29.72
2018-07-03T13:37:01.492Z,30.02
2018-07-03T13:39:27.526Z,30.94
2018-07-03T13:41:53.507Z,29.73
2018-07-03T13:44:19.470Z,30.46
2018-07-03T13:46:45.471Z,27.99
2018-07-03T13:49:11.432Z,29.77
2018-07-03T13:51:37.408Z,29.19
2018-07-03T13:54:03.405Z,29.67
2018-07-03T13:56:29.381Z,30.18
2018-07-03T13:58:55.341Z,29.12
2018-07-03T14:01:21.294Z,29.33
2018-07-03T14:03:47.272Z,29.93
2018-07-03T14:06:13.272Z,29.02
2018-07-03T14:08:39.292Z,29.96
2018-07-03T14:11:05.253Z,28.27
2018-07-03T14:13:31.223Z,28.88
2018-07-03T14:15:57.192Z,30.20
2018-07-03T14:18:23.170Z,28.47
2018-07-03T14:20:49.132Z,27.91
2018-07-03T14:23:15.131Z,29.42
2018-07-03T14:25:41.096Z,29.06
2018-07-03T14:28:07.164Z,30.53
2018-07-03T14:30:33.162Z,27.68
2018-07-03T14:32:59.176Z,28.45
2018-07-03T14:35:25.134Z,28.91
2018-07-03T14:37:51.087Z,29.11
2018-07-03T14:40:17.101Z,28.42
2018-07-03T14:42:43.052Z,27.78
2018-07-03T14:45:09.143Z,29.58
2018-07-03T14:47:35.183Z,29.04
2018-07-03T14:50:01.181Z,27.93
2018-07-03T14:52:27.159Z,27.02
2018-07-03T14:54:53.165Z,28.31
2018-07-03T14:57:19.101Z,28.89
2018-07-03T14:59:45.075Z,29.68
2018-07-03T15:02:11.079Z,28.68
2018-07-03T15:04:37.065Z,29.61
2018-07-03T15:07:03.019Z,30.54
2018-07-03T15:09:29.009Z,28.42
2018-07-03T15:11:54.997Z,29.73
2018-07-03T15:14:20.988Z,29.65
2018-07-03T15:16:46.946Z,28.91
2018-07-03T15:19:12.962Z,29.48
2018-07-03T15:21:38.948Z,27.91
2018-07-03T15:24:04.939Z,29.74
2018-07-03T15:26:31.972Z,27.78
2018-07-03T15:28:57.945Z,29.45
2018-07-03T15:31:24.047Z,29.96
2018-07-03T15:33:50.082Z,28.66
2018-07-03T15:36:16.098Z,29.23
2018-07-03T15:38:42.097Z,30.30
2018-07-03T15:41:08.087Z,30.55
2018-07-03T15:43:34.170Z,31.02
2018-07-03T15:46:00.145Z,30.10
2018-07-03T15:48:26.124Z,30.17
2018-07-03T15:50:52.105Z,29.04
2018-07-03T15:53:18.063Z,30.34
2018-07-03T15:55:44.037Z,30.13
2018-07-03T15:58:09.987Z,29.59
2018-07-03T16:00:36.044Z,31.00
2018-07-03T16:03:01.982Z,29.05
2018-07-03T16:05:27.953Z,30.21
2018-07-03T16:07:53.995Z,29.36
2018-07-03T16:10:20.053Z,28.92
2018-07-03T16:12:46.004Z,29.62
2018-07-03T16:15:12.001Z,29.30
2018-07-03T16:17:37.966Z,29.11
2018-07-03T16:20:04.104Z,29.54
2018-07-03T16:22:30.050Z,29.03
2018-07-03T16:24:56.003Z,30.01
2018-07-03T16:27:21.995Z,29.16
2018-07-03T16:29:47.989Z,28.97
2018-07-03T16:32:13.951Z,30.19
2018-07-03T16:34:39.903Z,30.17
2018-07-03T16:37:05.850Z,29.39
2018-07-03T16:39:31.810Z,29.62
2018-07-03T16:41:57.784Z,28.37
2018-07-03T16:44:23.718Z,28.60
2018-07-03T16:46:49.737Z,30.38
2018-07-03T16:49:15.709Z,29.71
2018-07-03T16:51:41.669Z,30.08
2018-07-03T16:54:07.670Z,32.15
2018-07-03T16:56:33.629Z,31.06
2018-07-03T16:58:59.592Z,32.48
2018-07-03T17:01:25.540Z,30.86
2018-07-03T17:03:51.485Z,31.68
2018-07-03T17:06:17.420Z,33.73
2018-07-03T17:08:43.391Z,32.53
2018-07-03T17:11:09.338Z,30.39
2018-07-03T17:13:35.334Z,29.83
2018-07-03T17:16:01.298Z,31.00
2018-07-03T17:18:27.233Z,31.58
2018-07-03T17:20:53.213Z,31.62
2018-07-03T17:23:19.178Z,30.32
2018-07-03T17:25:45.192Z,32.18
2018-07-03T17:28:11.156Z,30.93
2018-07-03T17:30:37.139Z,31.00
2018-07-03T17:33:03.194Z,31.43
2018-07-03T17:35:29.134Z,30.25
2018-07-03T17:37:55.097Z,32.42
2018-07-03T17:40:21.073Z,31.70
2018-07-03T17:42:47.084Z,32.60
2018-07-03T17:45:13.057Z,33.53
2018-07-03T17:47:39.038Z,30.75
2018-07-03T17:50:04.974Z,32.17
2018-07-03T17:52:30.960Z,33.80
2018-07-03T17:54:56.929Z,32.52
2018-07-03T17:57:23.087Z,30.74
2018-07-03T17:59:48.881Z,31.33
2018-07-03T18:02:14.857Z,31.23
2018-07-03T18:04:40.836Z,32.85
2018-07-03T18:07:06.844Z,32.71
2018-07-03T18:09:32.838Z,33.47
2018-07-03T18:11:58.786Z,30.96
2018-07-03T18:14:24.847Z,32.93
2018-07-03T18:16:51.002Z,32.79
2018-07-03T18:19:16.990Z,32.30
2018-07-03T18:21:42.997Z,32.24
2018-07-03T18:24:09.026Z,32.16
2018-07-03T18:26:35.100Z,33.68
2018-07-03T18:29:02.082Z,32.13
2018-07-03T18:31:28.141Z,33.31
2018-07-03T18:33:54.173Z,36.35
2018-07-03T18:36:20.231Z,35.00
2018-07-03T18:38:46.310Z,32.31
2018-07-03T18:41:12.374Z,33.21
2018-07-03T18:43:38.411Z,33.92
2018-07-03T18:46:04.376Z,33.19
2018-07-03T18:48:30.363Z,34.54
2018-07-03T18:50:56.380Z,35.21
2018-07-03T18:53:22.361Z,32.78
2018-07-03T18:55:48.352Z,32.73
2018-07-03T18:58:14.404Z,31.78
2018-07-03T19:00:40.399Z,33.80
2018-07-03T19:03:06.405Z,32.90
2018-07-03T19:05:32.505Z,33.02
2018-07-03T19:07:58.537Z,35.11
2018-07-03T19:10:24.506Z,36.28
2018-07-03T19:12:54.414Z,34.76
2018-07-03T19:15:20.512Z,31.74
2018-07-03T19:17:47.099Z,31.25
2018-07-03T19:20:13.067Z,32.53
2018-07-03T19:22:39.186Z,32.20
2018-07-03T19:25:05.087Z,31.77
2018-07-03T19:27:31.132Z,34.67
2018-07-03T19:29:57.134Z,32.96
2018-07-03T19:32:23.111Z,32.52
2018-07-03T19:34:49.109Z,34.26
2018-07-03T19:37:15.111Z,33.24
2018-07-03T19:39:41.086Z,32.07
2018-07-03T19:42:07.110Z,32.37
2018-07-03T19:44:33.118Z,31.33
2018-07-03T19:46:59.092Z,32.99
2018-07-03T19:49:25.096Z,32.14
2018-07-03T19:51:51.056Z,31.60
2018-07-03T19:54:17.023Z,30.82
2018-07-03T19:56:43.036Z,31.57
2018-07-03T19:59:09.015Z,32.48
2018-07-03T20:01:34.982Z,31.19
2018-07-03T20:04:00.964Z,32.83
2018-07-03T20:06:26.966Z,32.83
2018-07-03T20:08:53.020Z,32.21
2018-07-03T20:11:19.011Z,33.17
2018-07-03T20:13:45.013Z,32.48
2018-07-03T20:16:12.104Z,32.13
2018-07-03T20:18:38.078Z,33.84
2018-07-03T20:21:04.030Z,33.17
2018-07-03T20:23:30.099Z,32.13
2018-07-03T20:25:56.122Z,32.76
2018-07-03T20:28:22.190Z,33.29
2018-07-03T20:30:48.167Z,31.41
2018-07-03T20:33:14.187Z,31.46
2018-07-03T20:35:40.250Z,32.67
2018-07-03T20:38:06.259Z,31.93
2018-07-03T20:40:32.291Z,31.55
2018-07-03T20:42:58.252Z,33.07
2018-07-03T20:45:24.227Z,32.16
2018-07-03T20:47:50.332Z,31.44
2018-07-03T20:50:16.441Z,31.93
2018-07-03T20:52:42.419Z,30.95
2018-07-03T20:55:08.394Z,31.77
2018-07-03T20:57:34.414Z,31.20
2018-07-03T21:00:00.516Z,31.06
2018-07-03T21:02:26.394Z,31.14
2018-07-03T21:04:52.353Z,31.49
2018-07-03T21:07:18.339Z,31.93
2018-07-03T21:09:45.420Z,31.81
2018-07-03T21:12:11.383Z,31.73
2018-07-03T21:14:37.408Z,31.95
2018-07-03T21:17:03.440Z,32.40
2018-07-03T21:19:29.459Z,32.20
2018-07-03T21:21:55.413Z,32.03
2018-07-03T21:24:21.436Z,32.43
2018-07-03T21:26:47.352Z,32.06
2018-07-03T21:29:13.306Z,32.22
2018-07-03T21:31:39.415Z,32.05
2018-07-03T21:34:05.335Z,32.26
2018-07-03T21:36:35.664Z,32.19
2018-07-03T21:39:01.741Z,32.61
2018-07-03T21:41:27.687Z,32.59
2018-07-03T21:43:53.625Z,32.11
2018-07-03T21:46:19.602Z,32.92
2018-07-03T21:48:45.614Z,33.16
2018-07-03T21:51:11.599Z,33.21
2018-07-03T21:53:37.589Z,33.40
2018-07-03T21:56:03.583Z,33.40
2018-07-03T21:58:30.736Z,33.39
2018-07-03T22:00:56.686Z,32.89
2018-07-03T22:03:22.673Z,33.48
2018-07-03T22:05:48.644Z,33.53
2018-07-03T22:08:14.666Z,33.46
2018-07-03T22:10:40.635Z,33.75
2018-07-03T22:13:06.613Z,33.76
2018-07-03T22:15:32.574Z,33.87
2018-07-03T22:17:58.656Z,34.42
2018-07-03T22:20:24.647Z,34.84
2018-07-03T22:22:50.617Z,34.29
2018-07-03T22:25:16.603Z,33.64
2018-07-03T22:27:42.641Z,34.50
2018-07-03T22:30:08.695Z,34.00
2018-07-03T22:32:34.688Z,34.16
2018-07-03T22:35:00.687Z,34.41
2018-07-03T22:37:26.712Z,33.62
2018-07-03T22:39:53.333Z,33.81
2018-07-03T22:42:19.463Z,34.16
2018-07-03T22:44:45.480Z,34.63
2018-07-03T22:47:11.535Z,34.26
2018-07-03T22:49:37.549Z,34.81
2018-07-03T22:52:03.530Z,34.99
2018-07-03T22:54:29.557Z,35.29
2018-07-03T22:56:55.546Z,35.30
2018-07-03T22:59:21.565Z,34.84
2018-07-03T23:01:47.588Z,36.51
2018-07-03T23:04:13.586Z,36.21
2018-07-03T23:06:39.611Z,36.62
2018-07-03T23:09:05.618Z,35.70
2018-07-03T23:11:31.665Z,37.09
2018-07-03T23:13:57.681Z,37.54
2018-07-03T23:16:23.720Z,37.06
2018-07-03T23:18:49.736Z,37.43
2018-07-03T23:21:15.777Z,38.09
2018-07-03T23:23:41.779Z,38.11
2018-07-03T23:26:07.795Z,37.72
2018-07-03T23:28:33.778Z,37.82
2018-07-03T23:30:59.820Z,38.24
2018-07-03T23:33:25.882Z,37.72
2018-07-03T23:35:51.882Z,39.08
2018-07-03T23:38:17.855Z,39.40
2018-07-03T23:40:43.902Z,39.65
2018-07-03T23:43:09.881Z,39.43
2018-07-03T23:45:35.912Z,40.07
2018-07-03T23:48:01.902Z,40.55
2018-07-03T23:50:27.912Z,40.67
2018-07-03T23:52:53.955Z,40.25
2018-07-03T23:55:19.993Z,40.91
2018-07-03T23:57:46.014Z,41.13
